createdAt,value
2023-10-13T00:01:56.996Z,48.73
2023-10-13T00:04:23.942Z,48.71
2023-10-13T00:06:50.520Z,48.89
2023-10-13T00:09:17.000Z,48.71
2023-10-13T00:11:47.349Z,48.84
2023-10-13T00:14:17.445Z,48.99
2023-10-13T00:17:01.915Z,48.89
2023-10-13T00:19:29.360Z,48.92
2023-10-13T00:21:57.617Z,48.77
2023-10-13T00:24:30.706Z,48.87
2023-10-13T00:26:58.718Z,49.02
2023-10-13T00:29:31.817Z,49.07
2023-10-13T00:31:58.882Z,48.74
2023-10-13T00:34:33.823Z,48.85
2023-10-13T00:37:18.669Z,48.96
2023-10-13T00:39:48.087Z,49.06
2023-10-13T00:42:21.503Z,48.91
2023-10-13T00:44:51.077Z,49.00
2023-10-13T00:47:43.965Z,48.81
2023-10-13T00:50:15.938Z,48.83
2023-10-13T00:52:47.996Z,49.08
2023-10-13T00:55:15.012Z,48.97
2023-10-13T00:57:42.404Z,48.83
2023-10-13T01:00:25.572Z,49.00
2023-10-13T01:03:09.637Z,49.15
2023-10-13T01:05:38.488Z,49.01
2023-10-13T01:08:05.008Z,48.99
2023-10-13T01:10:33.935Z,48.85
2023-10-13T01:13:03.484Z,49.13
2023-10-13T01:15:34.826Z,48.81
2023-10-13T01:18:15.174Z,49.00
2023-10-13T01:20:46.732Z,48.96
2023-10-13T01:23:20.133Z,49.07
2023-10-13T01:25:47.302Z,48.98
2023-10-13T01:28:19.925Z,49.19
2023-10-13T01:30:51.684Z,49.15
2023-10-13T01:33:24.516Z,48.98
2023-10-13T01:35:51.925Z,49.21
2023-10-13T01:38:18.642Z,49.16
2023-10-13T01:40:45.320Z,48.95
2023-10-13T01:43:16.204Z,49.13
2023-10-13T01:45:51.197Z,49.02
2023-10-13T01:48:19.508Z,49.18
2023-10-13T01:50:55.742Z,49.22
2023-10-13T01:53:23.548Z,49.14
2023-10-13T01:55:51.563Z,48.97
2023-10-13T01:58:19.755Z,48.97
2023-10-13T02:00:48.933Z,49.04
2023-10-13T02:03:17.081Z,49.06
2023-10-13T02:05:49.775Z,48.95
2023-10-13T02:08:24.100Z,49.20
2023-10-13T02:10:53.319Z,49.20
2023-10-13T02:13:21.824Z,48.90
2023-10-13T02:15:49.451Z,49.33
2023-10-13T02:18:22.152Z,49.49
2023-10-13T02:20:55.337Z,49.07
2023-10-13T02:23:22.544Z,49.14
2023-10-13T02:25:49.062Z,49.52
2023-10-13T02:28:15.789Z,49.34
2023-10-13T02:30:46.472Z,49.24
2023-10-13T02:33:13.419Z,49.22
2023-10-13T02:35:43.764Z,49.25
2023-10-13T02:38:13.554Z,49.51
2023-10-13T02:40:40.170Z,49.29
2023-10-13T02:43:06.637Z,49.44
2023-10-13T02:45:34.014Z,49.13
2023-10-13T02:48:14.888Z,49.33
2023-10-13T02:50:45.401Z,49.43
2023-10-13T02:53:14.851Z,49.37
2023-10-13T02:55:54.130Z,49.47
2023-10-13T02:58:22.059Z,49.51
2023-10-13T03:00:48.911Z,49.32
2023-10-13T03:03:20.065Z,49.17
2023-10-13T03:05:46.849Z,49.59
2023-10-13T03:08:18.935Z,49.28
2023-10-13T03:10:49.778Z,49.39
2023-10-13T03:13:16.333Z,49.58
2023-10-13T03:15:42.878Z,49.43
2023-10-13T03:18:16.639Z,49.45
2023-10-13T03:20:44.952Z,49.37
2023-10-13T03:23:11.412Z,49.28
2023-10-13T03:25:44.119Z,49.45
2023-10-13T03:28:15.342Z,49.39
2023-10-13T03:30:45.096Z,49.35
2023-10-13T03:33:13.360Z,49.26
2023-10-13T03:35:43.488Z,49.28
2023-10-13T03:38:20.529Z,49.43
2023-10-13T03:40:50.781Z,49.09
2023-10-13T03:43:23.289Z,49.26
2023-10-13T03:45:53.418Z,49.20
2023-10-13T03:48:26.591Z,49.37
2023-10-13T03:51:16.878Z,49.35
2023-10-13T03:53:56.009Z,49.73
2023-10-13T03:56:33.010Z,49.57
2023-10-13T03:59:07.674Z,49.32
2023-10-13T04:01:52.697Z,49.56
2023-10-13T04:04:40.247Z,49.51
2023-10-13T04:07:06.676Z,49.92
2023-10-13T04:09:33.161Z,49.56
2023-10-13T04:12:03.631Z,49.54
2023-10-13T04:14:48.856Z,49.74
2023-10-13T04:17:15.845Z,49.83
2023-10-13T04:20:04.240Z,49.96
2023-10-13T04:22:50.640Z,49.90
2023-10-13T04:25:37.177Z,49.81
2023-10-13T04:28:13.643Z,49.80
2023-10-13T04:30:58.742Z,49.85
2023-10-13T04:33:35.520Z,49.96
2023-10-13T04:36:15.308Z,50.01
2023-10-13T04:39:01.079Z,49.92
2023-10-13T04:41:46.083Z,49.95
2023-10-13T04:44:25.443Z,49.75
2023-10-13T04:46:52.142Z,49.77
2023-10-13T04:49:35.365Z,50.05
2023-10-13T04:52:12.422Z,49.74
2023-10-13T04:54:46.556Z,49.91
2023-10-13T04:57:32.144Z,49.90
2023-10-13T05:00:04.903Z,49.92
2023-10-13T05:02:37.894Z,50.18
2023-10-13T05:05:07.646Z,49.78
2023-10-13T05:07:52.871Z,49.69
2023-10-13T05:10:49.005Z,50.04
2023-10-13T05:13:34.155Z,50.24
2023-10-13T05:16:19.602Z,50.17
2023-10-13T05:19:04.870Z,50.09
2023-10-13T05:21:49.747Z,49.96
2023-10-13T05:24:34.656Z,50.05
2023-10-13T05:27:19.597Z,49.77
2023-10-13T05:30:05.864Z,50.16
2023-10-13T05:32:51.091Z,50.04
2023-10-13T05:35:36.259Z,50.07
2023-10-13T05:38:21.158Z,50.08
2023-10-13T05:41:26.487Z,50.08
2023-10-13T05:44:11.774Z,50.10
2023-10-13T05:46:38.708Z,49.96
2023-10-13T05:49:17.698Z,50.22
2023-10-13T05:51:48.900Z,50.15
2023-10-13T05:54:15.720Z,50.28
2023-10-13T05:57:07.544Z,50.29
2023-10-13T05:59:53.234Z,50.21
2023-10-13T06:02:39.975Z,49.97
2023-10-13T06:05:32.028Z,50.33
2023-10-13T06:08:17.606Z,50.16
2023-10-13T06:11:03.010Z,50.08
2023-10-13T06:13:48.327Z,50.16
2023-10-13T06:16:34.526Z,50.29
2023-10-13T06:19:19.707Z,50.29
2023-10-13T06:22:05.525Z,50.35
2023-10-13T06:24:50.481Z,50.36
2023-10-13T06:27:35.811Z,50.22
2023-10-13T06:30:02.867Z,50.43
2023-10-13T06:32:29.676Z,50.10
2023-10-13T06:35:06.105Z,50.42
2023-10-13T06:37:34.189Z,50.12
2023-10-13T06:40:07.621Z,50.34
2023-10-13T06:42:41.124Z,50.35
2023-10-13T06:45:09.618Z,50.42
2023-10-13T06:47:43.821Z,50.36
2023-10-13T06:50:26.045Z,50.35
2023-10-13T06:52:56.519Z,50.28
2023-10-13T06:55:29.591Z,50.05
2023-10-13T06:58:01.120Z,50.11
2023-10-13T07:00:31.291Z,49.99
2023-10-13T07:03:08.277Z,50.36
2023-10-13T07:05:36.084Z,50.27
2023-10-13T07:08:05.745Z,50.29
2023-10-13T07:10:40.595Z,50.26
2023-10-13T07:13:09.347Z,50.39
2023-10-13T07:15:41.068Z,50.16
2023-10-13T07:18:07.514Z,50.29
2023-10-13T07:20:35.610Z,50.33
2023-10-13T07:23:05.152Z,50.42
2023-10-13T07:25:34.219Z,50.24
2023-10-13T07:28:09.853Z,50.34
2023-10-13T07:30:54.897Z,50.22
2023-10-13T07:33:21.585Z,50.19
2023-10-13T07:35:53.032Z,50.05
2023-10-13T07:38:22.563Z,50.03
2023-10-13T07:40:54.835Z,50.23
2023-10-13T07:43:22.911Z,50.01
2023-10-13T07:45:53.442Z,49.89
2023-10-13T07:48:21.489Z,49.91
2023-10-13T07:50:50.025Z,49.91
2023-10-13T07:53:25.737Z,50.03
2023-10-13T07:55:57.374Z,49.93
2023-10-13T07:58:27.458Z,50.10
2023-10-13T08:00:59.630Z,50.19
2023-10-13T08:03:52.463Z,50.02
2023-10-13T08:06:21.440Z,50.28
2023-10-13T08:08:51.598Z,50.03
2023-10-13T08:11:21.189Z,50.19
2023-10-13T08:14:02.486Z,50.21
2023-10-13T08:16:51.708Z,50.16
2023-10-13T08:19:19.281Z,49.74
2023-10-13T08:22:21.690Z,49.93
2023-10-13T08:24:52.328Z,49.92
2023-10-13T08:27:34.538Z,50.04
2023-10-13T08:30:03.832Z,50.04
2023-10-13T08:32:30.634Z,49.98
2023-10-13T08:35:10.277Z,50.11
2023-10-13T08:37:56.901Z,50.14
2023-10-13T08:40:42.640Z,50.12
2023-10-13T08:43:12.780Z,50.29
2023-10-13T08:45:45.528Z,50.13
2023-10-13T08:48:19.753Z,50.27
2023-10-13T08:50:53.217Z,50.31
2023-10-13T08:53:45.574Z,50.11
2023-10-13T08:56:15.680Z,50.15
2023-10-13T08:58:55.252Z,50.33
2023-10-13T09:01:44.741Z,49.98
2023-10-13T09:04:30.946Z,50.20
2023-10-13T09:07:07.206Z,50.15
2023-10-13T09:09:52.307Z,50.52
2023-10-13T09:12:35.058Z,50.08
2023-10-13T09:15:25.025Z,50.52
2023-10-13T09:17:51.813Z,50.23
2023-10-13T09:20:44.126Z,50.02
2023-10-13T09:23:13.366Z,50.40
2023-10-13T09:25:55.090Z,50.30
2023-10-13T09:28:26.619Z,50.64
2023-10-13T09:30:54.122Z,50.60
2023-10-13T09:33:34.380Z,50.61
2023-10-13T09:36:01.378Z,50.83
2023-10-13T09:38:32.398Z,50.86
2023-10-13T09:40:59.365Z,51.08
2023-10-13T09:43:27.858Z,51.33
2023-10-13T09:46:08.888Z,52.40
2023-10-13T09:48:37.516Z,52.52
2023-10-13T09:51:08.024Z,53.02
2023-10-13T09:53:35.231Z,53.04
2023-10-13T09:56:20.477Z,53.38
2023-10-13T09:58:56.194Z,53.47
2023-10-13T10:01:35.107Z,53.38
2023-10-13T10:04:17.068Z,53.82
2023-10-13T10:07:00.652Z,53.61
2023-10-13T10:09:36.010Z,53.69
2023-10-13T10:12:11.054Z,54.00
2023-10-13T10:14:38.387Z,53.88
2023-10-13T10:17:11.151Z,54.01
2023-10-13T10:19:47.483Z,54.01
2023-10-13T10:22:21.845Z,54.13
2023-10-13T10:24:58.159Z,54.01
2023-10-13T10:27:31.755Z,54.09
2023-10-13T10:29:58.886Z,54.38
2023-10-13T10:32:34.742Z,54.13
2023-10-13T10:35:08.820Z,54.45
2023-10-13T10:37:35.758Z,54.36
2023-10-13T10:40:06.932Z,54.55
2023-10-13T10:42:33.704Z,54.55
2023-10-13T10:45:06.497Z,54.66
2023-10-13T10:47:34.086Z,54.40
2023-10-13T10:50:08.033Z,54.75
2023-10-13T10:52:38.450Z,54.77
2023-10-13T10:55:08.766Z,54.83
2023-10-13T10:57:38.486Z,54.63
2023-10-13T11:00:16.059Z,54.81
2023-10-13T11:02:42.491Z,54.90
2023-10-13T11:05:11.767Z,54.79
2023-10-13T11:07:38.300Z,55.00
2023-10-13T11:10:14.651Z,55.05
2023-10-13T11:12:44.539Z,54.83
2023-10-13T11:15:23.699Z,55.13
2023-10-13T11:17:55.751Z,55.05
2023-10-13T11:20:44.946Z,55.09
2023-10-13T11:23:12.733Z,55.13
2023-10-13T11:25:39.675Z,55.21
2023-10-13T11:28:18.838Z,55.37
2023-10-13T11:30:51.367Z,55.31
2023-10-13T11:33:29.617Z,55.14
2023-10-13T11:35:57.160Z,55.36
2023-10-13T11:38:27.910Z,55.17
2023-10-13T11:41:08.782Z,55.26
2023-10-13T11:43:53.659Z,55.22
2023-10-13T11:46:37.064Z,55.28
2023-10-13T11:49:18.228Z,55.62
2023-10-13T11:51:47.736Z,55.40
2023-10-13T11:54:21.150Z,55.63
2023-10-13T11:56:48.042Z,55.76
2023-10-13T11:59:18.971Z,55.82
2023-10-13T12:02:05.004Z,55.63
2023-10-13T12:04:50.232Z,55.68
2023-10-13T12:07:46.292Z,55.68
2023-10-13T12:10:34.568Z,55.67
2023-10-13T12:13:06.779Z,55.95
2023-10-13T12:15:49.990Z,55.69
2023-10-13T12:18:17.022Z,55.72
2023-10-13T12:20:46.807Z,56.13
2023-10-13T12:23:18.255Z,55.80
2023-10-13T12:26:00.744Z,55.73
2023-10-13T12:28:32.325Z,55.94
2023-10-13T12:31:05.352Z,56.20
2023-10-13T12:33:44.964Z,56.06
2023-10-13T12:36:16.444Z,56.02
2023-10-13T12:38:49.455Z,55.98
2023-10-13T12:41:36.262Z,56.25
2023-10-13T12:44:22.929Z,55.99
2023-10-13T12:47:08.524Z,56.32
2023-10-13T12:49:44.719Z,56.44
2023-10-13T12:52:20.128Z,56.39
2023-10-13T12:55:07.222Z,56.44
2023-10-13T12:57:34.655Z,56.26
2023-10-13T13:00:02.087Z,56.08
2023-10-13T13:02:28.888Z,56.42
2023-10-13T13:05:02.792Z,56.49
2023-10-13T13:07:30.683Z,56.48
2023-10-13T13:09:59.828Z,56.38
2023-10-13T13:12:26.332Z,56.20
2023-10-13T13:14:56.129Z,56.31
2023-10-13T13:17:22.989Z,56.29
2023-10-13T13:19:49.819Z,56.21
2023-10-13T13:22:17.265Z,56.46
2023-10-13T13:24:44.691Z,56.22
2023-10-13T13:27:14.827Z,56.63
2023-10-13T13:29:44.696Z,56.45
2023-10-13T13:32:25.333Z,56.62
2023-10-13T13:35:08.889Z,56.51
2023-10-13T13:37:35.989Z,56.37
2023-10-13T13:40:17.428Z,56.34
2023-10-13T13:42:44.505Z,56.68
2023-10-13T13:45:22.542Z,56.75
2023-10-13T13:47:55.127Z,56.35
2023-10-13T13:50:25.924Z,56.45
2023-10-13T13:52:53.839Z,56.67
2023-10-13T13:55:21.053Z,56.49
2023-10-13T13:57:47.958Z,56.28
2023-10-13T14:00:18.327Z,56.47
2023-10-13T14:02:49.091Z,56.60
2023-10-13T14:05:19.111Z,56.60
2023-10-13T14:07:51.674Z,56.63
2023-10-13T14:10:32.513Z,56.58
2023-10-13T14:13:07.406Z,56.45
2023-10-13T14:15:45.191Z,56.45
2023-10-13T14:18:20.621Z,56.66
2023-10-13T14:20:47.100Z,56.34
2023-10-13T14:23:13.524Z,56.63
2023-10-13T14:25:40.471Z,56.78
2023-10-13T14:28:07.649Z,56.65
2023-10-13T14:30:34.423Z,56.50
2023-10-13T14:33:00.850Z,56.45
2023-10-13T14:35:27.364Z,56.48
2023-10-13T14:37:54.189Z,56.73
2023-10-13T14:40:22.828Z,56.50
2023-10-13T14:42:49.724Z,56.46
2023-10-13T14:45:19.043Z,56.45
2023-10-13T14:47:45.586Z,56.77
2023-10-13T14:50:20.806Z,56.74
2023-10-13T14:52:50.423Z,56.54
2023-10-13T14:55:19.951Z,56.71
2023-10-13T14:57:51.609Z,56.61
2023-10-13T15:00:26.234Z,56.46
2023-10-13T15:02:54.347Z,56.67
2023-10-13T15:05:21.092Z,56.71
2023-10-13T15:07:47.702Z,56.42
2023-10-13T15:10:17.786Z,56.69
2023-10-13T15:12:47.782Z,56.67
2023-10-13T15:15:17.383Z,56.33
2023-10-13T15:17:44.416Z,56.40
2023-10-13T15:20:16.852Z,56.47
2023-10-13T15:22:44.381Z,56.72
2023-10-13T15:25:21.886Z,56.58
2023-10-13T15:27:56.584Z,56.36
2023-10-13T15:30:31.989Z,56.50
2023-10-13T15:32:58.631Z,56.31
2023-10-13T15:35:29.526Z,56.27
2023-10-13T15:37:56.714Z,56.48
2023-10-13T15:40:25.033Z,56.17
2023-10-13T15:42:51.500Z,56.10
2023-10-13T15:45:18.041Z,56.19
2023-10-13T15:48:16.901Z,56.14
2023-10-13T15:50:42.905Z,56.31
2023-10-13T15:53:13.819Z,56.30
2023-10-13T15:55:40.622Z,56.13
2023-10-13T15:58:10.208Z,56.11
2023-10-13T16:00:37.279Z,55.95
2023-10-13T16:03:11.433Z,55.81
2023-10-13T16:05:39.268Z,56.03
2023-10-13T16:08:07.936Z,56.06
2023-10-13T16:10:34.698Z,55.82
2023-10-13T16:13:01.201Z,56.01
2023-10-13T16:15:27.786Z,55.99
2023-10-13T16:17:54.903Z,55.93
2023-10-13T16:20:22.108Z,55.66
2023-10-13T16:22:49.092Z,55.93
2023-10-13T16:25:19.680Z,55.60
2023-10-13T16:27:47.509Z,55.85
2023-10-13T16:30:17.151Z,55.91
2023-10-13T16:32:46.904Z,55.82
2023-10-13T16:35:17.519Z,55.56
2023-10-13T16:37:48.137Z,55.74
2023-10-13T16:40:19.364Z,55.58
2023-10-13T16:42:46.646Z,55.54
2023-10-13T16:45:15.865Z,55.84
2023-10-13T16:47:43.834Z,55.83
2023-10-13T16:50:10.981Z,55.69
2023-10-13T16:52:37.654Z,55.53
2023-10-13T16:55:05.907Z,55.49
2023-10-13T16:57:32.390Z,55.45
2023-10-13T16:59:58.866Z,55.40
2023-10-13T17:02:25.379Z,55.20
2023-10-13T17:04:51.906Z,55.09
2023-10-13T17:07:19.912Z,55.27
2023-10-13T17:09:46.611Z,55.12
2023-10-13T17:12:13.206Z,55.03
2023-10-13T17:14:41.557Z,55.39
2023-10-13T17:17:09.484Z,55.12
2023-10-13T17:19:35.993Z,55.27
2023-10-13T17:22:05.038Z,55.20
2023-10-13T17:24:34.470Z,55.14
2023-10-13T17:27:02.473Z,55.56
2023-10-13T17:29:29.931Z,55.29
2023-10-13T17:31:56.515Z,55.56
2023-10-13T17:34:23.298Z,55.26
2023-10-13T17:36:50.136Z,55.31
2023-10-13T17:39:19.035Z,55.29
2023-10-13T17:41:49.494Z,55.52
2023-10-13T17:44:15.926Z,55.47
2023-10-13T17:46:42.942Z,55.38
2023-10-13T17:49:09.442Z,55.37
2023-10-13T17:51:36.138Z,55.48
2023-10-13T17:54:02.565Z,55.35
2023-10-13T17:56:28.992Z,55.51
2023-10-13T17:58:55.658Z,55.51
2023-10-13T18:01:22.716Z,55.30
2023-10-13T18:03:53.089Z,55.33
2023-10-13T18:06:21.352Z,55.29
2023-10-13T18:08:50.419Z,55.55
2023-10-13T18:11:17.100Z,55.25
2023-10-13T18:13:44.366Z,55.62
2023-10-13T18:16:17.518Z,55.59
2023-10-13T18:18:44.810Z,55.49
2023-10-13T18:21:13.190Z,55.37
2023-10-13T18:23:44.541Z,55.44
2023-10-13T18:26:16.590Z,55.46
2023-10-13T18:28:43.656Z,55.62
2023-10-13T18:31:13.222Z,55.40
2023-10-13T18:33:40.740Z,55.20
2023-10-13T18:36:14.498Z,55.50
2023-10-13T18:38:41.026Z,55.24
2023-10-13T18:41:08.752Z,55.36
2023-10-13T18:43:39.252Z,55.27
2023-10-13T18:46:12.836Z,55.36
2023-10-13T18:48:39.489Z,55.18
2023-10-13T18:51:07.442Z,55.54
2023-10-13T18:53:35.327Z,55.19
2023-10-13T18:56:05.471Z,55.18
2023-10-13T18:58:34.415Z,55.19
2023-10-13T19:01:09.121Z,55.38
2023-10-13T19:03:35.637Z,55.34
2023-10-13T19:06:02.032Z,55.21
2023-10-13T19:08:30.361Z,55.40
2023-10-13T19:10:56.803Z,55.30
2023-10-13T19:13:23.229Z,55.47
2023-10-13T19:15:49.739Z,55.23
2023-10-13T19:18:16.348Z,55.16
2023-10-13T19:20:42.867Z,55.28
2023-10-13T19:23:10.290Z,55.21
2023-10-13T19:25:37.137Z,54.96
2023-10-13T19:28:03.743Z,55.19
2023-10-13T19:30:32.674Z,55.20
2023-10-13T19:35:25.978Z,55.21
2023-10-13T19:37:52.399Z,55.26
2023-10-13T19:40:18.850Z,55.19
2023-10-13T19:42:45.358Z,55.23
2023-10-13T19:45:14.411Z,55.13
2023-10-13T19:47:42.014Z,54.92
2023-10-13T19:50:14.194Z,55.08
2023-10-13T19:52:43.416Z,54.89
2023-10-13T19:55:17.561Z,55.07
2023-10-13T19:57:45.277Z,54.78
2023-10-13T20:00:20.856Z,55.02
2023-10-13T20:02:50.320Z,54.69
2023-10-13T20:05:18.932Z,54.76
2023-10-13T20:07:45.357Z,54.76
2023-10-13T20:10:12.083Z,55.07
2023-10-13T20:12:41.987Z,54.99
2023-10-13T20:15:08.717Z,54.78
2023-10-13T20:17:36.166Z,54.86
2023-10-13T20:20:04.676Z,54.74
2023-10-13T20:22:31.386Z,54.85
2023-10-13T20:24:58.131Z,54.65
2023-10-13T20:27:24.699Z,54.63
2023-10-13T20:29:52.281Z,54.79
2023-10-13T20:32:18.735Z,54.87
2023-10-13T20:34:45.108Z,54.96
2023-10-13T20:37:14.242Z,54.94
2023-10-13T20:39:42.122Z,54.69
2023-10-13T20:42:10.200Z,54.81
2023-10-13T20:44:41.326Z,54.65
2023-10-13T20:47:08.149Z,54.61
2023-10-13T20:49:34.849Z,54.64
2023-10-13T20:52:05.622Z,54.79
2023-10-13T20:54:35.542Z,54.53
2023-10-13T20:57:02.115Z,54.75
2023-10-13T20:59:28.654Z,54.79
2023-10-13T21:01:56.548Z,54.45
2023-10-13T21:04:24.832Z,54.56
2023-10-13T21:06:51.650Z,54.52
2023-10-13T21:09:21.675Z,54.22
2023-10-13T21:11:51.275Z,54.36
2023-10-13T21:14:17.817Z,54.33
2023-10-13T21:16:44.363Z,54.36
2023-10-13T21:19:11.053Z,54.05
2023-10-13T21:21:38.919Z,53.96
2023-10-13T21:24:11.026Z,54.10
2023-10-13T21:26:37.884Z,54.02
2023-10-13T21:29:09.027Z,53.99
2023-10-13T21:31:38.669Z,53.57
2023-10-13T21:34:08.594Z,53.54
2023-10-13T21:36:38.549Z,53.48
2023-10-13T21:39:05.558Z,53.60
2023-10-13T21:41:37.970Z,53.45
2023-10-13T21:44:04.594Z,53.59
2023-10-13T21:46:31.201Z,53.47
2023-10-13T21:49:05.787Z,53.56
2023-10-13T21:51:33.377Z,53.30
2023-10-13T21:54:00.246Z,53.29
2023-10-13T21:56:26.755Z,53.27
2023-10-13T21:58:53.178Z,53.06
2023-10-13T22:01:22.585Z,53.24
2023-10-13T22:03:49.697Z,53.05
2023-10-13T22:06:16.760Z,53.35
2023-10-13T22:08:43.310Z,53.09
2023-10-13T22:11:09.964Z,53.21
2023-10-13T22:13:42.057Z,52.84
2023-10-13T22:16:12.403Z,53.20
2023-10-13T22:18:39.088Z,53.19
2023-10-13T22:21:05.612Z,53.06
2023-10-13T22:23:32.018Z,52.99
2023-10-13T22:25:58.452Z,52.97
2023-10-13T22:28:25.152Z,52.95
2023-10-13T22:30:51.893Z,53.12
2023-10-13T22:33:18.421Z,53.09
2023-10-13T22:35:44.875Z,53.00
2023-10-13T22:38:12.589Z,52.98
2023-10-13T22:40:42.004Z,53.09
2023-10-13T22:43:08.553Z,53.12
2023-10-13T22:45:35.081Z,53.00
2023-10-13T22:48:01.611Z,53.24
2023-10-13T22:50:27.996Z,53.04
2023-10-13T22:52:59.578Z,53.27
2023-10-13T22:55:26.504Z,53.18
2023-10-13T22:57:57.596Z,53.39
2023-10-13T23:00:47.640Z,53.27
2023-10-13T23:03:18.653Z,53.33
2023-10-13T23:06:04.664Z,53.34
2023-10-13T23:08:41.821Z,53.47
2023-10-13T23:11:15.853Z,53.65
2023-10-13T23:13:44.007Z,53.38
2023-10-13T23:16:13.989Z,53.73
2023-10-13T23:18:41.461Z,53.80
2023-10-13T23:21:08.000Z,53.56
2023-10-13T23:23:34.475Z,53.61
2023-10-13T23:26:04.381Z,53.38
2023-10-13T23:28:37.057Z,53.44
2023-10-13T23:31:03.882Z,53.55
2023-10-13T23:33:30.450Z,53.76
2023-10-13T23:35:56.926Z,53.84
2023-10-13T23:38:26.237Z,53.67
2023-10-13T23:40:53.615Z,53.83
2023-10-13T23:43:22.823Z,53.60
2023-10-13T23:46:06.200Z,53.60
2023-10-13T23:48:35.608Z,53.65
2023-10-13T23:51:02.392Z,53.77
2023-10-13T23:53:32.353Z,53.40
2023-10-13T23:56:13.495Z,53.54
2023-10-13T23:58:42.241Z,53.54
